Time;durP1;ratioP1;P1;durP2;ratioP2;P2;SDS_P1;SDS_P2;PMS_P1;PMS_P2;Temp;Humidity;BMP_temperature;BMP_pressure;BME280_temperature;BME280_humidity;BME280_pressure;Samples;Min_cycle;Max_cycle;Signal;HPM_P1;HPM_P2
2022/04/26 03:36:53;;;;;;;5.10;2.97;;;9.90;43.70;;;6.83;49.19;101161.25;8248594;28;20129;-81
2022/04/26 03:40:59;;;;;;;6.75;2.67;;;9.60;43.40;;;7.02;49.99;101213.41;8245770;28;20118;-81
2022/04/26 03:45:01;;;;;;;3.47;2.83;;;9.20;43.20;;;6.84;49.03;101201.91;8239568;28;20526;-80
2022/04/26 03:49:02;;;;;;;3.30;2.63;;;9.30;43.20;;;6.65;49.46;101184.31;8230665;28;20523;-81
2022/04/26 03:53:04;;;;;;;3.90;2.88;;;9.30;43.20;;;6.69;49.74;101213.59;8244012;28;20133;-80
2022/04/26 03:57:06;;;;;;;4.55;2.75;;;9.40;43.30;;;6.54;50.12;101201.13;8210432;28;20563;-81
2022/04/26 04:01:08;;;;;;;3.88;2.97;;;9.30;43.30;;;6.59;49.73;101215.66;8222903;28;20134;-81
2022/04/26 04:05:09;;;;;;;7.50;3.50;;;9.20;43.40;;;6.57;49.52;101217.44;8231122;28;20486;-81
2022/04/26 04:09:11;;;;;;;4.68;3.15;;;9.20;43.50;;;6.40;50.04;101191.16;8207184;28;20587;-81
2022/04/26 04:13:13;;;;;;;3.67;3.13;;;9.10;43.70;;;6.53;49.64;101210.63;8218012;28;20141;-81
2022/04/26 04:17:14;;;;;;;6.25;3.50;;;9.10;43.90;;;6.70;50.06;101236.06;8206823;28;20582;-81
2022/04/26 04:21:16;;;;;;;3.13;2.83;;;9.10;44.00;;;6.64;49.76;101221.53;8222946;28;20141;-81
2022/04/26 04:25:18;;;;;;;2.97;2.63;;;9.10;44.00;;;6.64;49.96;101216.34;8231289;28;20146;-81
2022/04/26 04:29:19;;;;;;;4.75;3.03;;;8.90;44.00;;;6.82;50.03;101242.63;8228986;28;20145;-80
2022/04/26 04:33:21;;;;;;;3.58;2.72;;;9.50;44.30;;;6.58;50.15;101211.34;8214034;28;20129;-81
2022/04/26 04:37:22;;;;;;;3.30;3.00;;;9.20;44.10;;;6.71;49.90;101234.31;8221557;28;20169;-81
2022/04/26 04:41:24;;;;;;;4.78;2.92;;;9.20;44.10;;;6.84;50.50;101246.88;8195661;28;20047;-80
2022/04/26 04:45:26;;;;;;;4.88;2.78;;;9.20;44.30;;;6.90;50.00;101261.41;8206358;28;20050;-81
2022/04/26 04:49:27;;;;;;;6.22;3.55;;;9.10;44.20;;;6.59;49.90;101213.06;8237487;28;20599;-81
2022/04/26 04:53:29;;;;;;;3.28;2.80;;;9.20;44.30;;;6.68;50.39;101248.25;8224104;28;20042;-81
2022/04/26 04:57:30;;;;;;;7.00;3.65;;;9.10;44.20;;;6.70;50.37;101255.97;8262422;28;20137;-80
2022/04/26 05:01:31;;;;;;;3.72;2.88;;;9.30;44.20;;;6.41;50.20;101211.00;8252994;28;20153;-81
2022/04/26 05:05:33;;;;;;;4.63;2.80;;;9.20;44.30;;;6.44;49.90;101221.28;8235492;28;20046;-81
2022/04/26 05:09:34;;;;;;;4.40;2.85;;;9.00;44.30;;;6.75;50.58;101280.91;8208922;28;20125;-81
2022/04/26 05:13:37;;;;;;;3.63;3.03;;;8.90;44.30;;;6.55;50.51;101250.34;8214560;28;20132;-81
2022/04/26 05:17:38;;;;;;;4.20;3.05;;;9.20;44.60;;;6.72;50.59;101280.13;8221854;28;20487;-81
2022/04/26 05:21:40;;;;;;;4.43;3.38;;;9.20;44.80;;;6.53;50.28;101244.34;8210351;28;20567;-81
2022/04/26 05:25:41;;;;;;;4.07;3.20;;;9.20;44.80;;;6.67;50.55;101248.28;8231333;28;20031;-81
2022/04/26 05:29:43;;;;;;;4.20;3.05;;;9.30;45.00;;;6.76;50.67;101259.25;8225227;28;20137;-81
2022/04/26 05:33:45;;;;;;;4.53;3.30;;;9.30;45.20;;;6.87;50.20;101274.47;8249783;28;20109;-81
2022/04/26 05:37:47;;;;;;;3.92;3.38;;;9.40;45.30;;;6.99;50.73;101287.06;8212361;28;20246;-81
2022/04/26 05:41:48;;;;;;;3.67;3.15;;;9.40;45.40;;;7.07;50.96;101299.81;8229406;28;20126;-81
2022/04/26 05:45:50;;;;;;;6.32;4.03;;;9.30;45.50;;;7.00;50.83;101283.59;8227737;28;20137;-81
2022/04/26 05:49:52;;;;;;;3.70;2.88;;;9.50;45.80;;;7.09;50.77;101272.91;8228235;28;20583;-81
2022/04/26 05:53:54;;;;;;;5.10;3.50;;;9.50;45.90;;;7.17;51.07;101264.03;8230043;28;20031;-80
2022/04/26 05:57:56;;;;;;;6.00;3.83;;;9.40;46.40;;;7.61;51.68;101298.06;8227060;28;20142;-81
2022/04/26 06:01:58;;;;;;;4.88;3.05;;;9.90;47.20;;;7.83;51.26;101286.06;8204084;28;20133;-81
2022/04/26 06:06:00;;;;;;;6.07;3.95;;;10.00;47.40;;;8.06;51.48;101272.22;8230037;28;20053;-80
2022/04/26 06:10:03;;;;;;;6.00;3.65;;;10.10;47.70;;;8.40;51.56;101294.47;8244207;28;20425;-80
2022/04/26 06:14:05;;;;;;;5.60;4.10;;;10.50;47.90;;;8.53;51.20;101274.00;8209606;28;20057;-80
2022/04/26 06:18:10;;;;;;;6.07;3.95;;;10.60;47.70;;;8.86;51.85;101297.94;8208197;28;20137;-82
2022/04/26 06:22:11;;;;;;;6.63;3.70;;;10.80;47.70;;;9.04;51.36;101291.13;8230482;28;20125;-80
2022/04/26 06:26:13;;;;;;;4.88;3.38;;;11.10;47.50;;;9.07;51.50;101262.34;8236456;28;20061;-80
2022/04/26 06:30:15;;;;;;;4.75;3.55;;;11.30;47.50;;;9.48;51.24;101283.28;8238830;28;20111;-79
2022/04/26 06:34:17;;;;;;;4.28;3.15;;;11.50;47.10;;;9.69;51.12;101298.03;8229021;28;20049;-79
2022/04/26 06:38:19;;;;;;;4.00;3.15;;;11.80;47.00;;;9.91;51.33;101294.47;8209285;28;20439;-79
2022/04/26 06:42:20;;;;;;;4.97;3.50;;;11.80;46.40;;;10.09;50.77;101291.06;8227796;28;20034;-83
2022/04/26 06:46:22;;;;;;;7.68;2.88;;;12.40;46.10;;;10.31;50.87;101280.53;8203292;28;20496;-80
2022/04/26 06:50:23;;;;;;;3.58;2.55;;;12.30;45.70;;;10.51;50.23;101289.25;8230399;28;20480;-80
2022/04/26 06:54:27;;;;;;;3.10;2.30;;;12.50;45.40;;;10.47;50.92;101251.13;8188768;28;20130;-80
2022/04/26 06:58:30;;;;;;;2.72;2.35;;;12.70;45.30;;;10.77;50.69;101282.81;8229293;28;20034;-80
2022/04/26 07:02:32;;;;;;;2.72;2.25;;;12.70;45.00;;;10.96;50.11;101294.06;8231118;28;20048;-80
2022/04/26 07:06:34;;;;;;;2.35;2.15;;;12.90;44.60;;;10.91;50.19;101271.69;8235750;28;20541;-79
2022/04/26 07:10:37;;;;;;;2.17;1.80;;;13.10;44.10;;;11.13;49.51;101287.22;8218544;28;20520;-77
2022/04/26 07:14:39;;;;;;;2.72;2.10;;;13.30;43.60;;;11.37;49.73;101293.84;8235828;28;20133;-77
2022/04/26 07:18:40;;;;;;;3.17;1.73;;;13.40;43.50;;;11.55;49.70;101291.22;8244685;28;20045;-77
2022/04/26 07:22:42;;;;;;;1.83;1.50;;;13.60;43.60;;;11.62;49.86;101279.56;8261481;28;20145;-79
2022/04/26 07:26:46;;;;;;;4.38;1.20;;;13.70;43.10;;;11.82;49.26;101279.38;8219609;28;20495;-81
2022/04/26 07:30:53;;;;;;;3.80;1.40;;;13.90;42.80;;;12.10;49.05;101285.84;8215467;28;20051;-80
2022/04/26 07:34:55;;;;;;;3.80;1.40;;;13.80;42.70;;;12.38;49.19;101299.13;8216338;28;20423;-78
2022/04/26 07:38:56;;;;;;;1.42;1.33;;;14.30;42.50;;;12.44;48.74;101273.53;8224666;28;20499;-77
2022/04/26 07:42:58;;;;;;;1.17;1.17;;;14.50;42.10;;;12.82;48.73;101302.88;8221219;28;20495;-78
2022/04/26 07:47:00;;;;;;;4.22;1.23;;;14.70;42.00;;;13.01;48.17;101300.06;8208934;28;20057;-77
2022/04/26 07:51:03;;;;;;;3.15;1.80;;;14.90;41.30;;;13.18;48.03;101299.16;8224927;28;20038;-82
2022/04/26 07:55:05;;;;;;;1.92;1.23;;;15.00;41.40;;;13.47;47.93;101295.72;8194951;28;20043;-82
2022/04/26 07:59:07;;;;;;;1.30;1.20;;;15.30;41.30;;;13.59;47.39;101295.94;8235760;28;20614;-82
2022/04/26 08:03:08;;;;;;;1.48;1.38;;;15.50;40.30;;;13.71;47.19;101293.41;8220396;28;20049;-80
2022/04/26 08:07:10;;;;;;;2.63;1.33;;;15.60;40.20;;;13.91;47.19;101300.13;8250598;28;20077;-79
2022/04/26 08:11:13;;;;;;;1.33;1.23;;;15.80;40.30;;;14.14;47.08;101301.34;8236995;28;20125;-81
2022/04/26 08:15:14;;;;;;;2.38;1.20;;;16.00;40.20;;;14.24;47.11;101280.63;8212106;28;20130;-80
2022/04/26 08:19:16;;;;;;;1.23;1.08;;;16.20;40.50;;;14.55;46.50;101315.53;8238302;28;20125;-79
2022/04/26 08:23:17;;;;;;;1.05;0.93;;;16.30;39.70;;;14.57;46.55;101293.47;8254244;28;20037;-79
2022/04/26 08:27:25;;;;;;;1.10;1.10;;;16.50;39.60;;;14.65;46.45;101271.13;8246070;28;20492;-79
2022/04/26 08:31:28;;;;;;;1.25;1.13;;;16.70;39.80;;;15.03;46.13;101306.31;8253411;28;20132;-83
2022/04/26 08:35:29;;;;;;;0.98;0.98;;;16.90;39.50;;;15.18;46.04;101293.97;8217612;28;20049;-91
2022/04/26 08:39:31;;;;;;;2.25;1.15;;;17.00;39.30;;;15.45;46.07;101303.63;8231870;28;20141;-81
2022/04/26 08:43:39;;;;;;;1.85;1.48;;;17.20;39.00;;;15.65;45.22;101320.69;8211677;28;20051;-79
2022/04/26 08:52:06;;;;;;;1.10;1.00;;;17.50;38.70;;;15.82;45.37;101294.09;8244415;28;20457;-80
2022/04/26 08:56:08;;;;;;;1.20;1.10;;;17.80;38.80;;;16.01;45.21;101298.09;8245421;28;20122;-79
2022/04/26 09:00:11;;;;;;;1.33;1.23;;;18.00;38.60;;;16.17;44.93;101319.81;8199317;28;20415;-81
2022/04/26 09:04:16;;;;;;;1.65;1.30;;;18.20;37.80;;;15.87;44.13;101276.19;8200224;28;20064;-79
2022/04/26 09:08:22;;;;;;;1.30;1.20;;;18.10;37.00;;;16.03;44.31;101277.78;8223985;28;20042;-81
2022/04/26 09:12:23;;;;;;;1.48;1.38;;;18.30;37.60;;;16.38;44.15;101313.03;8219442;28;20048;-81
2022/04/26 09:16:25;;;;;;;1.30;1.20;;;18.20;37.40;;;16.49;44.06;101320.19;8213056;28;20061;-80
2022/04/26 09:20:33;;;;;;;1.45;1.35;;;18.20;37.50;;;16.46;43.75;101286.16;8218881;28;20069;-81
2022/04/26 09:24:59;;;;;;;1.20;1.10;;;18.60;37.20;;;16.56;43.38;101281.91;8233688;28;20083;-82
2022/04/26 09:29:00;;;;;;;1.30;1.20;;;18.70;37.60;;;16.85;43.86;101309.78;8229821;28;20030;-81
2022/04/26 09:33:02;;;;;;;1.00;0.90;;;18.70;37.20;;;16.88;43.63;101310.44;8247353;28;20035;-80
2022/04/26 09:37:05;;;;;;;1.15;1.05;;;18.90;37.10;;;16.47;43.39;101247.44;8237184;28;20046;-81
2022/04/26 09:41:09;;;;;;;1.50;1.13;;;18.90;36.90;;;16.80;43.01;101291.69;8214685;28;20439;-80
2022/04/26 09:45:13;;;;;;;1.30;1.20;;;18.80;36.90;;;16.99;43.33;101302.56;8239335;28;20076;-81
2022/04/26 09:49:18;;;;;;;1.50;1.40;;;19.00;37.10;;;17.23;43.13;101312.28;8227060;28;20684;-81
2022/04/26 09:53:19;;;;;;;1.17;1.15;;;19.10;37.00;;;17.42;43.18;101303.84;8236209;28;20045;-81
2022/04/26 09:57:23;;;;;;;1.27;1.10;;;19.20;37.20;;;17.50;42.81;101279.47;8221605;28;20046;-81
2022/04/26 10:01:34;;;;;;;1.60;1.50;;;19.40;36.80;;;17.62;42.32;101287.31;8219781;28;20047;-81
2022/04/26 10:05:39;;;;;;;1.17;1.13;;;19.60;36.10;;;17.73;42.19;101318.22;8242964;28;20042;-80
2022/04/26 10:09:44;;;;;;;1.50;1.30;;;19.60;35.80;;;17.67;42.35;101297.56;8243572;28;20076;-82
2022/04/26 10:13:48;;;;;;;1.23;1.13;;;19.60;36.30;;;17.53;42.46;101237.03;8200041;28;20051;-80
2022/04/26 10:17:49;;;;;;;1.30;1.20;;;19.80;36.70;;;18.10;42.40;101303.06;8237693;28;20042;-80
2022/04/26 10:21:52;;;;;;;1.60;1.30;;;19.80;36.50;;;18.19;42.14;101298.00;8220489;28;20057;-80
2022/04/26 10:26:11;;;;;;;1.70;1.38;;;20.10;36.10;;;18.31;41.74;101297.06;8233078;28;20414;-79
2022/04/26 10:30:13;;;;;;;1.65;1.55;;;20.20;36.10;;;18.44;42.03;101294.25;8228305;28;20042;-79
2022/04/26 10:34:26;;;;;;;3.70;1.27;;;20.30;36.30;;;18.52;41.44;101300.66;8244153;28;20598;-78
2022/04/26 10:38:27;;;;;;;1.75;1.65;;;20.20;35.70;;;18.57;41.77;101293.16;8245420;28;20384;-80
2022/04/26 10:42:31;;;;;;;1.50;1.40;;;20.50;35.90;;;18.58;41.20;101284.28;8226137;28;20061;-81
2022/04/26 10:46:33;;;;;;;1.63;1.25;;;20.20;35.50;;;18.21;41.13;101232.63;8241564;28;20050;-81
2022/04/26 10:50:35;;;;;;;1.38;1.27;;;20.60;35.30;;;18.22;41.03;101245.72;8240563;28;20030;-82
2022/04/26 10:54:51;;;;;;;1.40;1.30;;;20.40;35.20;;;18.42;40.73;101294.41;8242858;28;20522;-83
2022/04/26 10:58:53;;;;;;;1.35;1.23;;;20.40;34.80;;;18.25;41.09;101265.78;8236121;28;20064;-82
2022/04/26 11:03:02;;;;;;;1.40;1.20;;;20.70;35.60;;;18.39;41.09;101283.19;8241643;28;20056;-82
2022/04/26 11:07:11;;;;;;;1.33;1.23;;;20.20;35.30;;;18.55;40.91;101288.94;8228369;28;20052;-82
2022/04/26 11:11:17;;;;;;;1.50;1.40;;;20.50;35.30;;;18.58;40.66;101289.56;8196630;28;20055;-82
2022/04/26 11:15:21;;;;;;;1.55;1.45;;;20.50;35.30;;;18.28;40.71;101239.97;8242608;28;20047;-82
2022/04/26 11:19:32;;;;;;;1.50;1.40;;;20.80;35.50;;;18.56;40.48;101295.94;8243093;28;20543;-81
2022/04/26 11:28:08;;;;;;;3.15;1.55;;;20.50;35.60;;;18.44;40.37;101281.03;8233525;28;20051;-82
2022/04/26 11:32:31;;;;;;;2.17;1.70;;;20.50;35.00;;;18.38;40.30;101263.84;8215617;28;20138;-82
2022/04/26 11:36:37;;;;;;;1.00;1.00;;;20.50;35.10;;;18.43;40.44;101256.41;8251401;28;20559;-81
2022/04/26 11:40:42;;;;;;;1.40;1.30;;;20.50;35.10;;;18.63;40.38;101285.69;8254485;28;20117;-81
2022/04/26 11:45:03;;;;;;;1.30;1.20;;;20.60;35.20;;;18.70;40.10;101298.31;8250973;28;20036;-81
2022/04/26 11:49:05;;;;;;;1.45;1.33;;;20.60;35.00;;;18.61;40.41;101287.66;8242339;28;20037;-81
2022/04/26 11:53:19;;;;;;;5.03;1.60;;;20.50;35.00;;;18.50;40.07;101278.75;8199888;28;20480;-81
2022/04/26 11:57:21;;;;;;;1.15;1.10;;;20.60;34.70;;;18.57;40.31;101301.09;8198064;28;20458;-80
2022/04/26 12:01:25;;;;;;;1.65;1.50;;;20.60;35.20;;;18.52;40.01;101300.66;8211539;28;20055;-81
2022/04/26 12:05:27;;;;;;;1.73;1.52;;;20.60;35.10;;;18.10;40.17;101231.69;8228302;28;20038;-83
2022/04/26 12:09:29;;;;;;;1.50;1.40;;;20.80;35.20;;;18.31;40.08;101267.97;8230126;28;20043;-82
2022/04/26 12:13:32;;;;;;;1.42;1.33;;;20.50;34.80;;;18.49;39.91;101295.56;8227872;28;20031;-81
2022/04/26 12:17:35;;;;;;;1.45;1.35;;;20.40;34.80;;;18.49;39.83;101294.75;8226871;28;20050;-81
2022/04/26 12:21:58;;;;;;;2.25;1.15;;;20.40;34.70;;;18.37;39.36;101285.97;8229937;28;20129;-81
2022/04/26 12:26:03;;;;;;;1.05;1.00;;;20.40;34.30;;;18.18;39.86;101248.75;8245929;28;20059;-81
2022/04/26 12:30:10;;;;;;;1.23;1.10;;;20.20;34.60;;;18.36;39.73;101281.63;8231006;28;20041;-83
2022/04/26 12:34:24;;;;;;;1.05;1.02;;;20.40;34.80;;;18.39;39.59;101269.97;8230776;28;20126;-81
2022/04/26 12:38:30;;;;;;;1.10;1.10;;;20.40;34.70;;;18.28;39.40;101258.47;8235079;28;20827;-80
2022/04/26 12:42:35;;;;;;;1.42;1.33;;;20.40;34.70;;;18.40;39.44;101285.75;8229142;28;20598;-80
2022/04/26 12:51:21;;;;;;;0.95;0.95;;;20.20;34.00;;;18.06;39.49;101235.50;8237078;28;20571;-83
2022/04/26 12:55:36;;;;;;;1.02;0.93;;;20.30;34.50;;;18.23;39.33;101243.94;8250378;28;20141;-86
2022/04/26 12:59:39;;;;;;;1.65;1.55;;;20.30;34.60;;;18.51;39.48;101263.72;8246747;28;20460;-81
2022/04/26 13:03:44;;;;;;;3.47;1.55;;;20.30;34.40;;;18.35;39.11;101209.41;8234737;28;20037;-81
2022/04/26 13:07:47;;;;;;;1.30;1.20;;;20.50;34.50;;;18.70;39.11;101247.22;8230574;28;20397;-81
2022/04/26 13:11:49;;;;;;;2.78;1.10;;;20.50;34.50;;;18.88;39.01;101258.16;8230682;28;20043;-82
2022/04/26 13:15:51;;;;;;;1.27;1.10;;;20.60;34.40;;;18.87;38.58;101235.28;8250001;28;20031;-81
2022/04/26 13:19:54;;;;;;;1.00;1.00;;;20.80;34.00;;;18.92;38.68;101233.09;8233596;28;20134;-82
2022/04/26 13:23:57;;;;;;;1.02;1.02;;;20.80;33.80;;;18.92;38.40;101217.22;8229503;28;20038;-82
2022/04/26 13:28:02;;;;;;;1.45;1.23;;;20.90;33.80;;;19.11;38.22;101250.94;8229643;28;20427;-80
2022/04/26 13:32:05;;;;;;;1.25;1.10;;;20.70;33.80;;;19.07;38.27;101252.19;8229123;28;20509;-82
2022/04/26 13:36:07;;;;;;;1.50;1.40;;;21.00;33.30;;;18.99;38.01;101255.47;8214223;28;20110;-84
2022/04/26 13:40:10;;;;;;;2.05;1.10;;;21.00;33.30;;;18.85;37.91;101238.06;8242129;28;20134;-82
2022/04/26 13:44:11;;;;;;;1.20;0.90;;;20.90;33.00;;;18.81;38.01;101241.91;8197631;28;20142;-83
2022/04/26 13:48:13;;;;;;;2.72;1.10;;;20.80;33.00;;;18.76;37.95;101244.09;8229304;28;20057;-83
2022/04/26 13:52:15;;;;;;;1.00;1.00;;;20.80;33.20;;;18.73;37.90;101237.22;8239803;28;20141;-84
2022/04/26 13:56:16;;;;;;;1.30;1.10;;;20.70;33.20;;;18.79;37.59;101242.06;8200772;28;20141;-84
2022/04/26 14:00:18;;;;;;;2.03;1.20;;;20.70;32.90;;;18.79;37.60;101249.13;8242995;28;20473;-82
2022/04/26 14:04:21;;;;;;;1.27;1.17;;;20.70;33.50;;;18.63;37.54;101223.03;8231892;28;20122;-83
2022/04/26 14:08:23;;;;;;;1.70;1.02;;;20.70;33.10;;;18.75;37.45;101239.78;8235089;28;20051;-82
2022/04/26 14:12:27;;;;;;;1.38;1.27;;;20.70;33.20;;;18.81;37.51;101246.38;8235295;28;20113;-82
2022/04/26 14:25:11;;;;;;;0.80;0.80;;;20.80;33.20;;;18.83;37.54;101240.00;8234753;28;20047;-82
2022/04/26 14:29:13;;;;;;;1.08;1.02;;;20.80;33.20;;;18.79;37.34;101231.47;8247410;28;20053;-82
2022/04/26 14:33:15;;;;;;;1.00;1.00;;;20.80;33.00;;;18.83;37.60;101232.03;8253757;28;20142;-81
2022/04/26 14:37:17;;;;;;;1.40;1.00;;;20.70;33.20;;;18.90;37.20;101238.53;8241649;28;20146;-81
2022/04/26 14:41:19;;;;;;;1.00;0.90;;;20.80;32.90;;;18.89;37.11;101244.78;8239950;28;20047;-80
2022/04/26 14:45:21;;;;;;;1.30;1.20;;;20.80;32.90;;;18.75;37.17;101221.25;8229154;28;20039;-81
2022/04/26 14:49:23;;;;;;;1.17;1.05;;;20.80;32.90;;;18.82;37.17;101230.34;8206394;28;20053;-84
2022/04/26 14:53:25;;;;;;;0.75;0.75;;;20.80;32.90;;;18.93;36.91;101242.69;8230309;28;20130;-82
2022/04/26 14:57:27;;;;;;;0.90;0.90;;;20.80;32.80;;;18.80;37.10;101208.50;8217190;28;20114;-81
2022/04/26 15:01:31;;;;;;;1.10;0.93;;;20.90;33.00;;;18.93;36.87;101229.47;8245537;28;20133;-82
2022/04/26 15:05:33;;;;;;;1.05;1.05;;;20.80;33.20;;;18.69;37.05;101195.28;8230137;28;20146;-81
2022/04/26 15:09:44;;;;;;;1.02;0.95;;;20.90;33.20;;;18.98;37.02;101244.03;8216594;28;20130;-80
2022/04/26 15:18:06;;;;;;;0.90;0.90;;;20.90;33.10;;;18.94;37.03;101242.59;8246524;28;20750;-81
2022/04/26 15:22:07;;;;;;;1.10;1.10;;;20.90;33.00;;;19.00;36.84;101243.88;8228156;28;20407;-81
2022/04/26 15:26:11;;;;;;;1.13;1.10;;;20.90;33.00;;;18.99;36.83;101239.56;8241932;28;20612;-81
2022/04/26 15:30:13;;;;;;;1.20;1.10;;;20.80;33.00;;;18.49;36.93;101162.50;8256356;28;20058;-80
2022/04/26 15:34:14;;;;;;;1.20;1.10;;;20.80;32.80;;;18.93;36.77;101230.34;8238300;28;20399;-79
2022/04/26 15:38:16;;;;;;;1.30;1.17;;;21.00;32.90;;;19.06;36.69;101243.38;8235323;28;20042;-79
2022/04/26 15:42:18;;;;;;;1.33;1.02;;;21.00;32.90;;;18.70;36.73;101192.47;8232909;28;20060;-79
2022/04/26 15:46:19;;;;;;;1.30;1.20;;;20.90;32.80;;;18.86;36.44;101221.22;8239044;28;20037;-78
2022/04/26 15:50:21;;;;;;;3.25;1.35;;;21.00;32.40;;;18.99;36.51;101245.69;8235772;28;20030;-79
2022/04/26 15:54:22;;;;;;;1.70;1.20;;;20.90;32.70;;;18.81;36.57;101215.44;8246101;28;20052;-78
2022/04/26 15:58:24;;;;;;;0.90;0.90;;;20.80;32.70;;;19.08;36.54;101248.56;8236913;28;20034;-79
2022/04/26 16:02:26;;;;;;;1.42;1.33;;;20.80;32.70;;;18.98;36.31;101222.84;8261026;28;20057;-79
2022/04/26 16:06:27;;;;;;;1.15;1.00;;;21.00;32.70;;;19.04;36.21;101233.88;8239348;28;20057;-78
2022/04/26 16:23:30;;;;;;;0.90;0.90;;;21.00;32.60;;;19.12;36.03;101249.97;8237993;28;20050;-79
2022/04/26 16:27:32;;;;;;;2.90;1.17;;;20.90;32.30;;;19.06;36.03;101226.66;8242166;28;20038;-80
2022/04/26 16:31:34;;;;;;;1.42;1.13;;;21.00;32.50;;;19.15;35.87;101250.56;8241461;28;20039;-79
2022/04/26 16:35:36;;;;;;;1.08;0.98;;;20.80;32.10;;;19.01;35.80;101224.41;8234625;28;20471;-80
2022/04/26 16:39:37;;;;;;;1.25;1.10;;;21.10;32.20;;;19.16;35.77;101259.34;8227690;28;20038;-79
2022/04/26 16:43:39;;;;;;;1.30;1.00;;;21.00;32.10;;;18.88;35.68;101237.81;8237224;28;20047;-79
2022/04/26 16:47:40;;;;;;;2.20;1.00;;;21.00;32.00;;;18.91;35.60;101242.00;8241415;28;20041;-79
2022/04/26 16:51:42;;;;;;;2.72;1.00;;;21.00;32.20;;;19.07;35.79;101278.66;8244826;28;20038;-80
2022/04/26 16:55:43;;;;;;;1.13;0.90;;;20.80;32.10;;;19.01;35.78;101264.13;8237395;28;20030;-79
2022/04/26 16:59:44;;;;;;;1.23;1.02;;;20.80;32.50;;;18.89;35.85;101258.00;8245066;28;20034;-79
2022/04/26 17:03:46;;;;;;;3.78;1.00;;;20.90;32.60;;;18.94;35.96;101268.22;8230813;28;20381;-80
2022/04/26 17:07:49;;;;;;;1.70;1.15;;;20.90;33.00;;;18.82;36.14;101274.50;8243065;28;20034;-79
2022/04/26 17:11:52;;;;;;;1.88;1.10;;;20.80;32.90;;;18.71;36.16;101268.25;8215730;28;20040;-80
2022/04/26 17:15:53;;;;;;;1.27;1.17;;;20.70;33.00;;;18.73;36.09;101281.34;8203747;28;20050;-79
2022/04/26 17:19:55;;;;;;;2.90;1.15;;;20.50;33.00;;;18.52;36.20;101268.91;8229275;28;20080;-79
2022/04/26 17:23:56;;;;;;;1.65;1.17;;;20.60;33.20;;;18.20;36.25;101237.09;8242833;28;20600;-79
2022/04/26 17:27:59;;;;;;;1.63;1.15;;;20.50;33.20;;;18.39;36.44;101284.06;8225808;28;20063;-79
2022/04/26 17:32:00;;;;;;;1.70;1.10;;;20.40;33.20;;;18.33;36.43;101295.09;8248337;28;20491;-79
2022/04/26 17:36:02;;;;;;;0.90;0.90;;;20.20;33.20;;;18.20;36.48;101294.38;8233996;28;20041;-79
2022/04/26 17:40:05;;;;;;;1.02;0.93;;;20.20;33.10;;;18.13;36.43;101304.63;8236296;28;20036;-79
2022/04/26 17:44:08;;;;;;;1.20;1.10;;;20.10;33.30;;;17.91;36.72;101295.69;8210354;28;20050;-79
2022/04/26 17:48:09;;;;;;;1.25;1.10;;;20.00;33.60;;;17.74;36.82;101288.22;8198963;28;21869;-79
2022/04/26 17:52:11;;;;;;;1.52;1.35;;;19.90;33.70;;;17.85;37.08;101321.78;8237635;28;20484;-79
2022/04/26 17:56:31;;;;;;;4.00;1.55;;;19.80;33.90;;;17.71;37.29;101320.13;8220359;28;20521;-79
2022/04/26 18:00:33;;;;;;;1.70;1.60;;;19.80;34.00;;;17.52;37.17;101303.97;8224593;28;20050;-79
2022/04/26 18:04:35;;;;;;;1.70;1.60;;;19.70;34.10;;;17.46;37.01;101305.28;8234691;28;20064;-79
2022/04/26 18:08:38;;;;;;;1.58;1.27;;;19.60;33.80;;;17.51;37.17;101337.47;8228991;28;20475;-80
2022/04/26 18:12:40;;;;;;;3.45;1.58;;;19.60;33.90;;;17.45;37.15;101337.94;8229212;28;20039;-79
2022/04/26 18:16:42;;;;;;;1.33;1.23;;;19.60;34.20;;;17.40;37.28;101351.47;8217553;28;20598;-79
2022/04/26 18:20:43;;;;;;;1.20;1.15;;;19.50;33.90;;;17.21;37.30;101354.63;8229503;28;20034;-79
2022/04/26 18:24:47;;;;;;;1.52;1.42;;;19.40;33.70;;;16.74;37.09;101299.97;8244506;28;20041;-80
2022/04/26 18:28:58;;;;;;;1.13;1.00;;;19.30;33.70;;;17.00;37.46;101366.75;8240198;28;20042;-80
2022/04/26 18:33:00;;;;;;;4.18;1.20;;;19.10;33.80;;;16.47;37.44;101297.53;8231343;28;20041;-80
2022/04/26 18:37:02;;;;;;;2.38;1.15;;;19.00;33.80;;;16.75;37.32;101363.19;8249644;28;20034;-80
2022/04/26 18:41:04;;;;;;;1.58;1.48;;;18.80;33.90;;;16.76;37.40;101375.41;8238213;28;20137;-79
2022/04/26 18:45:07;;;;;;;1.27;1.17;;;18.90;34.10;;;16.67;37.48;101377.88;8233533;28;20043;-80
2022/04/26 18:49:11;;;;;;;2.25;1.52;;;18.80;34.20;;;16.59;37.61;101386.31;8229672;28;20039;-79
2022/04/26 18:53:14;;;;;;;2.47;1.42;;;18.50;34.10;;;16.51;37.66;101386.84;8227668;28;20055;-80
2022/04/26 18:57:17;;;;;;;1.60;1.50;;;18.70;34.70;;;16.44;37.95;101390.84;8244694;28;20055;-80
2022/04/26 19:01:19;;;;;;;3.00;1.60;;;18.60;34.70;;;16.33;37.71;101390.75;8229148;28;20489;-79
2022/04/26 19:05:20;;;;;;;1.73;1.50;;;18.50;34.60;;;16.19;38.03;101382.97;8233149;28;20530;-79
2022/04/26 19:09:23;;;;;;;1.63;1.30;;;18.40;34.60;;;16.28;37.67;101422.72;8241746;28;20432;-79
2022/04/26 19:13:24;;;;;;;1.38;1.27;;;18.10;34.40;;;15.79;38.21;101375.09;8229472;28;20042;-79
2022/04/26 19:17:26;;;;;;;1.90;1.20;;;18.30;34.50;;;15.86;37.69;101403.56;8241508;28;20485;-79
2022/04/26 19:21:27;;;;;;;1.15;1.10;;;18.20;34.50;;;15.96;38.11;101445.09;8245977;28;20050;-79
2022/04/26 19:25:29;;;;;;;4.35;1.95;;;18.20;35.00;;;15.85;38.65;101453.69;8254592;28;20422;-79
2022/04/26 19:29:30;;;;;;;2.50;2.30;;;18.00;35.00;;;15.76;38.29;101455.16;8248503;28;20041;-79
2022/04/26 19:33:32;;;;;;;5.88;3.35;;;17.80;34.90;;;15.31;38.31;101391.38;8248491;28;20049;-79
2022/04/26 19:37:34;;;;;;;3.20;2.90;;;17.80;35.10;;;15.30;38.51;101410.72;8238284;28;20026;-79
2022/04/26 19:41:38;;;;;;;3.53;2.63;;;17.80;35.10;;;15.60;38.52;101467.59;8249246;28;20129;-79
2022/04/26 19:45:40;;;;;;;2.90;2.35;;;17.70;35.20;;;15.22;38.63;101427.00;8238374;28;20038;-78
2022/04/26 19:49:41;;;;;;;1.80;1.70;;;17.60;35.20;;;15.34;38.86;101456.97;8242585;28;20450;-79
2022/04/26 19:53:43;;;;;;;2.05;1.50;;;17.50;35.20;;;15.32;38.69;101450.94;8229342;28;20031;-79
2022/04/26 19:57:47;;;;;;;2.15;1.80;;;17.70;35.40;;;15.43;38.86;101471.31;8198057;28;20039;-78
2022/04/26 20:01:48;;;;;;;1.70;1.60;;;17.20;35.50;;;14.95;38.61;101407.69;8231356;28;20042;-78
2022/04/26 20:05:52;;;;;;;2.45;1.95;;;17.30;35.60;;;15.10;38.70;101435.69;8219015;28;20559;-79
2022/04/26 20:09:54;;;;;;;3.55;1.75;;;17.40;35.60;;;15.21;38.79;101450.78;8241850;28;20054;-78
2022/04/26 20:13:56;;;;;;;3.60;2.35;;;17.40;35.60;;;15.36;38.83;101478.75;8237674;28;20037;-78
2022/04/26 20:17:59;;;;;;;2.95;2.65;;;17.40;35.90;;;15.37;39.30;101487.50;8255723;28;20174;-78
2022/04/26 20:22:00;;;;;;;3.97;3.30;;;17.40;36.00;;;15.16;39.01;101458.97;8228904;28;20049;-79
2022/04/26 20:30:22;;;;;;;4.28;3.88;;;17.30;36.30;;;15.15;39.59;101485.34;8229868;28;20039;-79
2022/04/26 20:34:24;;;;;;;5.72;4.32;;;17.30;36.20;;;15.12;39.55;101496.06;8245668;28;20117;-78
2022/04/26 20:38:26;;;;;;;3.17;2.88;;;17.20;36.30;;;15.05;39.45;101499.09;8228936;28;20145;-78
2022/04/26 20:42:28;;;;;;;3.95;3.22;;;17.20;36.20;;;14.76;39.62;101468.47;8229909;28;20049;-78
2022/04/26 20:46:29;;;;;;;2.70;2.50;;;16.90;36.20;;;14.80;39.48;101488.38;8231546;28;20031;-79
2022/04/26 20:50:31;;;;;;;2.58;2.25;;;17.00;36.30;;;14.91;39.79;101514.88;8233737;28;20398;-79
2022/04/26 20:54:35;;;;;;;2.03;1.65;;;17.00;36.40;;;14.79;39.82;101502.47;8231176;28;20775;-78
2022/04/26 20:58:36;;;;;;;1.92;1.70;;;17.00;36.40;;;14.76;39.61;101500.84;8230851;28;20038;-78
2022/04/26 21:02:38;;;;;;;1.80;1.70;;;17.20;36.40;;;14.53;39.93;101473.34;8242693;28;20476;-79
2022/04/26 21:06:40;;;;;;;1.92;1.73;;;16.90;36.50;;;14.74;40.13;101521.16;8231175;28;20042;-79
2022/04/26 21:10:42;;;;;;;1.98;1.85;;;16.90;36.70;;;14.81;39.90;101537.41;8229458;28;20042;-80
2022/04/26 21:14:43;;;;;;;2.42;2.13;;;16.90;36.90;;;14.82;40.04;101539.94;8228192;28;20038;-79